• Join FlightAware (Why Join?)
  • Login
  • US Flag 
07:02PM EDT


 

Airport Tracker/Info


-or-


 

Live Flight TrackerFlight Track Log ✈ DAL3678 ✈ 04-Apr-2013 ✈ KLIT - KATL

Flight Track Log - Related Links

Times and Time Zones

All times are in EDT time to prevent confusion due to time zone crossing. See the DAL3678 flight status page for this flight to view local times or setup timezone preferences in your user account.

Time Position Orientation Groundspeed Altitude Reporting Facility
EDT Latitude Longitude Course Direction KTS MPH feet Rate Location/Type
07:17PM 34.7350 -92.1994 90° East 149 171 900  Level Memphis Center
07:17PM 34.7417 -92.1844 62° Northeast 172 198 1,900 2,220 Climbing Memphis Center
07:18PM 34.7489 -92.1214 82° East 204 235 3,900 2,100 Climbing Memphis Center
07:20PM 34.7719 -91.9525 81° East 284 327 8,400 2,220 Climbing Memphis Center
07:21PM 34.7856 -91.8567 80° East 284 327 10,700 1,800 Climbing Memphis Center
07:22PM 34.7972 -91.7531 82° East 290 334 12,000 1,500 Climbing Memphis Center
07:23PM 34.8167 -91.4968 90° East  Level FlightAware Approximate
07:23PM 34.8172 -91.6294 79° East 323 372 13,700  Level Memphis Center
07:24PM 34.8311 -91.5031 82° East 350 403 15,300 1,740 Climbing Memphis Center
07:25PM 34.8467 -91.3769 81° East 375 432 17,200 1,740 Climbing Memphis Center
07:26PM 34.8644 -91.2456 81° East 380 437 18,800 1,500 Climbing Memphis Center
07:27PM 34.8800 -91.1114 82° East 391 450 20,200 1,260 Climbing Memphis Center
07:28PM 34.8972 -90.9875 80° East 404 465 21,400 1,440 Climbing Memphis Center
07:29PM 34.9167 -90.8358 81° East 409 471 23,100 1,200 Climbing Memphis Center
07:30PM 34.9317 -90.7092 82° East 414 476 23,900 900 Climbing Memphis Center
07:31PM 34.9489 -90.5647 82° East 428 493 24,900 1,020 Climbing Memphis Center
07:32PM 34.9678 -90.4178 81° East 428 493 26,000 1,020 Climbing Memphis Center
07:33PM 34.9864 -90.2708 81° East 433 498 27,000 1,020 Climbing Memphis Center
07:34PM 35.0031 -90.1239 82° East 433 498 28,100 900 Climbing Memphis Center
07:35PM 35.0150 -89.9539 85° East 445 512 28,800 900 Climbing Memphis Center
07:36PM 34.9956 -89.7994 99° East 450 518 29,900 1,080 Climbing Memphis Center
07:37PM 34.9697 -89.6400 101° East 473 544 31,000 540 Climbing Memphis Center
07:38PM 34.9436 -89.4831 101° East 473 544 31,000  Level Memphis Center
07:39PM 34.9217 -89.3414 101° East 468 539 31,000  Level Memphis Center
07:40PM 34.8975 -89.1847 101° East 473 544 31,000  Level Memphis Center
07:41PM 34.8728 -89.0256 101° East 473 544 31,000  Level Memphis Center
07:42PM 34.8481 -88.8692 101° East 468 539 31,000  Level Memphis Center
07:43PM 34.8253 -88.7103 100° East 468 539 31,000  Level Memphis Center
07:44PM 34.7978 -88.5336 101° East 468 539 31,000  Level Memphis Center
07:45PM 34.7725 -88.3800 101° East 468 539 31,000  Level Memphis Center
07:46PM 34.7469 -88.2189 101° East 473 544 31,000  Level Memphis Center
07:47PM 34.7208 -88.0478 100° East 501 577 31,000  Level Memphis Center
07:48PM 34.6906 -87.8869 103° East 501 577 31,000  Level Memphis Center
07:49PM 34.6664 -87.7183 100° East 501 577 31,000  Level Memphis Center
07:50PM 34.6397 -87.5578 101° East 496 571 31,000  Level Memphis Center
07:52PM 34.6053 -87.3522 101° East 469 540 31,000  Level Atlanta Center
07:53PM 34.5797 -87.2150 103° East 429 494 31,000  Level Atlanta Center
07:54PM 34.5519 -87.0778 104° East 417 480 31,000  Level Atlanta Center
07:55PM 34.5261 -86.9408 103° East 411 473 31,000  Level Atlanta Center
07:56PM 34.5000 -86.7989 103° East 416 479 31,000  Level Atlanta Center
07:57PM 34.4719 -86.6567 103° East 421 484 31,000  Level Atlanta Center
07:58PM 34.4436 -86.5147 104° East 421 484 31,000  Level Atlanta Center
07:59PM 34.4169 -86.3756 103° East 427 491 31,000  Level Atlanta Center
08:00PM 34.3906 -86.2314 102° East 432 497 31,000 -60 Level Atlanta Center
08:01PM 34.3594 -86.0894 105° East 432 497 30,900 -540 Descending Atlanta Center
08:02PM 34.3306 -85.9431 103° East 432 497 30,000 -480 Descending Atlanta Center
08:03PM 34.3092 -85.8344 103° East 432 497 30,000  Level Atlanta Center
08:04PM 34.2781 -85.6678 103° East 421 484 30,000 -240 Level Atlanta Center
08:05PM 34.2486 -85.5239 104° East 426 490 29,600 -600 Descending Atlanta Center
08:06PM 34.2211 -85.3828 103° East 431 496 28,800 -840 Descending Atlanta Center
08:07PM 34.1911 -85.2467 105° East 431 496 28,000 -1,200 Descending Atlanta Center
08:08PM 34.1611 -85.1108 105° East 425 489 26,400 -1,200 Descending Atlanta Center
08:09PM 34.0908 -85.0397 140° Southeast 369 425 25,600 -720 Descending Atlanta Center
08:10PM 34.0194 -85.0889 210° Southwest 265 305 25,000 -840 Descending Atlanta Center
08:11PM 33.9936 -85.1739 250° West 248 285 24,000 -900 Descending Atlanta Center
08:12PM 34.0408 -85.2597 304° West 292 336 23,300 -1,020 Descending Atlanta Center
08:13PM 34.1006 -85.3258 317° Northwest 302 348 22,000 -1,560 Descending Atlanta Center
08:14PM 34.1833 -85.4075 321° Northwest 351 404 20,200 -1,860 Descending Atlanta Center
08:15PM 34.2681 -85.4742 327° Northwest 367 422 18,300 -1,860 Descending Atlanta Center
08:17PM 34.3431 -85.2817 65° Northeast 282 325 14,700 -1,740 Descending Atlanta Center
08:18PM 34.2564 -85.1875 138° Southeast 331 381 13,100 -900 Descending Atlanta Center
08:19PM 34.1675 -85.1033 142° Southeast 375 432 13,000 -60 Descending Atlanta Center
08:20PM 34.0889 -85.0244 140° Southeast 391 450 13,000 -540 Level Atlanta Center
08:21PM 34.0161 -84.9761 151° Southeast 336 387 12,000 -1,200 Descending Atlanta Center
08:22PM 33.9411 -84.9478 163° South 296 341 10,700 -1,200 Descending Atlanta Center
08:23PM 33.8642 -84.9194 163° South 287 330 9,700 -1,020 Descending Atlanta Center
08:24PM 33.7850 -84.9136 176° South 282 325 8,700 -1,020 Descending Atlanta Center
08:25PM 33.7097 -84.9078 176° South 277 319 7,700 -780 Descending Atlanta Center
08:26PM 33.6494 -84.8772 157° South 234 269 7,200 -420 Descending Atlanta Center
08:27PM 33.6333 -84.8167 108° East 226 260 7,000 -540 Descending Atlanta TRACON
08:28PM 33.6333 -84.7500 90° East 219 252 6,300 -1,140 Descending Atlanta TRACON
08:29PM 33.6333 -84.6833 90° East 218 251 4,800 -1,320 Descending Atlanta TRACON
08:30PM 33.6333 -84.6167 90° East 206 237 3,700 -1,020 Descending Atlanta TRACON
08:31PM 33.6333 -84.5500 90° East 163 188 2,700 -900 Descending Atlanta TRACON
08:32PM 33.6333 -84.5000 90° East 124 143 2,000 -780 Descending Atlanta TRACON
08:33PM 33.6333 -84.4667 90° East 127 146 1,300 -720 Descending Atlanta TRACON
08:35PM 33.6367 -84.4279 North  Level Estimated
08:42PM 33.6367 -84.4279 North  Level Estimated